LFSN/ENC METAR and TAF weather

Enter ICAO airport designator
Station Type Date Time Source
LFSN METAR 2020/07/11 04:30 UTC NOAA

LFSN 110430Z AUTO 01003KT CAVOK 13/10 Q1022


Station Type Date Time Source
LFSN Decoded METAR 2020/07/11 04:30 UTC NOAA

Nancy / Essey, France (LFSN) 48-41N 006-13E 217M
Jul 11, 2020 - 12:30 AM EDT / 2020.07.11 0430 UTC
Wind: from the N (010 degrees) at 3 MPH (3 KT):0
Visibility: greater than 7 mile(s):0
Temperature: 55 F (13 C)
Dew Point: 50 F (10 C)
Relative Humidity: 81%
Pressure (altimeter): 30.18 in. Hg (1022 hPa)
ob: LFSN 110430Z AUTO 01003KT CAVOK 13/10 Q1022
cycle: 4

Station Type Date Time Source
LFSN TAF 2012/03/14 16:58 UTC NOAA

TAF LFSN 141600Z 1416/1512 CNL

Example: see airport list